Wednesday, October 22, 2014, 10:59 PM EDT

KJYO, Leesburg / Godfrey

Location: Leesburg, VA, United States Lat: 39.083
Local Time: 10:59 PM EDT ( 2:59 GMT) Lon: -77.567
Time Zone: US/Eastern Elev: 390 ft

Show me the last for .
Show Decoded

2014-10-22 22:35 METAR KJYO 230235Z AUTO 34014G19KT 10SM BKN042 OVC050 11/07 A2999 RMK AO2 =
2014-10-22 22:15 METAR KJYO 230215Z AUTO 33014G20KT 10SM OVC042 11/08 A2999 RMK AO2 =
2014-10-22 21:55 METAR KJYO 230155Z AUTO 33012G19KT 10SM OVC040 11/08 A2999 RMK AO2 =
2014-10-22 21:35 METAR KJYO 230135Z AUTO 33013G22KT 10SM OVC040 12/08 A3000 RMK AO2 =
2014-10-22 21:15 METAR KJYO 230115Z AUTO 34012KT 10SM BKN040 12/08 A3000 RMK AO2 =
2014-10-22 20:55 METAR KJYO 230055Z AUTO 34014G18KT 10SM SCT038 12/08 A2999 RMK AO2 =
2014-10-22 20:35 METAR KJYO 230035Z AUTO 34013G18KT 10SM SCT036 SCT045 12/08 A2998 RMK AO2 LTG
                 DSNT E =
2014-10-22 20:15 METAR KJYO 230015Z AUTO 34012G19KT 10SM SCT037 BKN047 12/08 A2998 RMK AO2 =
2014-10-22 19:55 METAR KJYO 222355Z AUTO 35011G16KT 10SM SCT043 SCT120 12/08 A2998 RMK AO2 =
2014-10-22 19:35 METAR KJYO 222335Z AUTO 34015G20KT 10SM SCT041 SCT060 BKN120 12/08 A2998 RMK AO2
                 =
2014-10-22 19:15 METAR KJYO 222315Z AUTO 34011G19KT 10SM BKN041 BKN060 OVC120 13/09 A2998 RMK AO2
                 =
2014-10-22 18:55 METAR KJYO 222255Z AUTO 35015G19KT 10SM BKN041 OVC110 13/09 A2998 RMK AO2 LTG
                 DSNT E =
2014-10-22 18:35 METAR KJYO 222235Z AUTO 33009G15KT 10SM OVC041 13/10 A2997 RMK AO2 LTG DSNT E =
2014-10-22 18:15 METAR KJYO 222215Z AUTO 34010G16KT 10SM OVC043 13/10 A2997 RMK AO2 =
2014-10-22 17:55 METAR KJYO 222155Z AUTO 33011G16KT 10SM OVC043 13/10 A2997 RMK AO2 =
2014-10-22 17:35 METAR KJYO 222135Z AUTO 34012G16KT 10SM OVC039 13/10 A2997 RMK AO2 =
2014-10-22 17:15 METAR KJYO 222115Z AUTO 35014G23KT 10SM OVC037 13/10 A2997 RMK AO2 =
2014-10-22 16:55 METAR KJYO 222055Z AUTO 36008G18KT 10SM OVC035 13/11 A2997 RMK AO2 =
2014-10-22 16:35 METAR KJYO 222035Z AUTO 35011G20KT 10SM OVC033 13/11 A2997 RMK AO2 =
2014-10-22 16:15 METAR KJYO 222015Z AUTO 35016G23KT 10SM SCT026 OVC031 13/11 A2997 RMK AO2 =
2014-10-22 15:35 METAR KJYO 221935Z AUTO 35015G20KT 10SM OVC031 13/11 A2997 RMK AO2 =
2014-10-22 15:15 METAR KJYO 221915Z AUTO 34013G21KT 10SM OVC031 12/11 A2997 RMK AO2 LTG DSNT E =
2014-10-22 14:55 METAR KJYO 221855Z AUTO 34015G20KT 10SM OVC029 12/11 A2997 RMK AO2 LTG DSNT E =
2014-10-22 14:35 METAR KJYO 221835Z AUTO 34011G18KT 10SM OVC031 12/11 A2997 RMK AO2 LTG DSNT E =
2014-10-22 14:15 METAR KJYO 221815Z AUTO 34012G19KT 10SM -RA OVC029 12/11 A2997 RMK AO2 =
2014-10-22 13:55 METAR KJYO 221755Z AUTO 35010KT 7SM RA OVC027 12/11 A2998 RMK AO2 LTG DSNT SE
                 P0008 =
2014-10-22 13:35 METAR KJYO 221735Z AUTO 34011G20KT 5SM RA OVC025 12/11 A2998 RMK AO2 P0003 =
2014-10-22 13:15 METAR KJYO 221715Z AUTO 35012G17KT 10SM RA OVC025 12/11 A2998 RMK AO2 =
2014-10-22 12:55 METAR KJYO 221655Z AUTO 35010G15KT 320V020 10SM -RA OVC025 12/11 A2998 RMK AO2
                 LTG DSNT SE P0001 =
2014-10-22 12:35 METAR KJYO 221635Z AUTO 35014G19KT 10SM -RA BKN023 OVC029 12/11 A2999 RMK AO2 =
2014-10-22 12:15 METAR KJYO 221615Z AUTO 36011G20KT 10SM -RA OVC028 12/11 A2998 RMK AO2 =
2014-10-22 11:55 METAR KJYO 221555Z AUTO 35012G20KT 10SM -RA OVC028 13/11 A2998 RMK AO2 =
2014-10-22 11:35 METAR KJYO 221535Z AUTO 35016G23KT 10SM OVC028 13/11 A2997 RMK AO2 =
2014-10-22 11:15 METAR KJYO 221515Z AUTO 36016G22KT 10SM OVC030 13/11 A2997 RMK AO2 =
2014-10-22 10:55 METAR KJYO 221455Z AUTO 36015G20KT 10SM OVC032 13/11 A2997 RMK AO2 =
2014-10-22 10:15 METAR KJYO 221415Z AUTO 35012G21KT 10SM BKN036 OVC050 13/11 A2997 RMK AO2 LTG
                 DSNT S =
2014-10-22 09:55 METAR KJYO 221355Z AUTO 36011G20KT 10SM SCT023 BKN050 OVC090 12/11 A2997 RMK AO2
                 =
2014-10-22 09:35 METAR KJYO 221335Z AUTO 35011G18KT 10SM SCT042 OVC048 12/11 A2996 RMK AO2 =
2014-10-22 09:15 METAR KJYO 221315Z AUTO 35012G20KT 10SM OVC044 12/11 A2996 RMK AO2 =
2014-10-22 08:55 METAR KJYO 221255Z AUTO 34013G19KT 10SM BKN037 OVC044 12/11 A2995 RMK AO2 =
2014-10-22 08:35 METAR KJYO 221235Z AUTO 35010KT 10SM -RA BKN025 OVC035 12/11 A2995 RMK AO2 =
2014-10-22 08:15 METAR KJYO 221215Z AUTO 35010G14KT 10SM -RA OVC025 12/11 A2995 RMK AO2 =
2014-10-22 07:55 METAR KJYO 221155Z AUTO 35010G15KT 10SM -RA OVC025 12/11 A2994 RMK AO2 P0002 =
2014-10-22 07:15 METAR KJYO 221115Z AUTO 02006KT 10SM -RA OVC021 12/11 A2993 RMK AO2 P0001 =
2014-10-22 06:55 METAR KJYO 221055Z AUTO 36008KT 10SM -RA OVC021 12/12 A2993 RMK AO2 =
2014-10-22 06:35 METAR KJYO 221035Z AUTO 36010KT 10SM -RA OVC019 11/11 A2992 RMK AO2 =
2014-10-22 06:15 METAR KJYO 221015Z AUTO 35009G15KT 10SM -RA OVC017 11/11 A2991 RMK AO2 =
2014-10-22 05:55 METAR KJYO 220955Z AUTO 35009KT 7SM RA SCT014 BKN019 OVC027 11/11 A2991 RMK AO2
                 P0011 =
2014-10-22 05:35 METAR KJYO 220935Z AUTO 35009G14KT 5SM +VCTSRA SCT009 BKN021 OVC037 11/11 A2991
                 RMK AO2 P0008 =
2014-10-22 05:15 METAR KJYO 220915Z AUTO 36009KT 7SM RA OVC021 11/11 A2991 RMK AO2 LTG DSNT E =
2014-10-22 04:55 METAR KJYO 220855Z AUTO 34008KT 7SM RA OVC023 11/11 A2990 RMK AO2 P0002 =
2014-10-22 04:35 METAR KJYO 220835Z AUTO 34007KT 10SM -RA BKN023 OVC060 11/11 A2990 RMK AO2 P0001
                 =
2014-10-22 04:15 METAR KJYO 220815Z AUTO 33009KT 10SM RA BKN023 BKN032 OVC060 11/11 A2990 RMK AO2
                 =
2014-10-22 03:55 METAR KJYO 220755Z AUTO 33006KT 10SM -DZ OVC023 11/11 A2990 RMK AO2 =
2014-10-22 03:35 METAR KJYO 220735Z AUTO 34006KT 10SM -RA BKN027 OVC044 11/11 A2990 RMK AO2 =
2014-10-22 03:15 METAR KJYO 220715Z AUTO 35006KT 10SM OVC027 11/11 A2990 RMK AO2 LTG DSNT E =
2014-10-22 02:55 METAR KJYO 220655Z AUTO 33007KT 10SM VCTS BKN027 OVC042 11/11 A2990 RMK AO2 =
2014-10-22 02:35 METAR KJYO 220635Z AUTO 33007KT 10SM SCT029 OVC040 11/11 A2990 RMK AO2 LTG DSNT
                 NE =
2014-10-22 02:15 METAR KJYO 220615Z AUTO 34007KT 10SM -DZ BKN027 BKN035 OVC050 11/11 A2991 RMK
                 AO2 LTG DSNT NE =
2014-10-22 01:55 METAR KJYO 220555Z AUTO 35006KT 10SM SCT025 BKN050 OVC060 11/11 A2991 RMK AO2
                 LTG DSNT NE =
2014-10-22 01:35 METAR KJYO 220535Z AUTO 34008KT 10SM -RA SCT025 BKN033 OVC060 11/11 A2991 RMK
                 AO2 =
2014-10-22 01:15 METAR KJYO 220515Z AUTO 34008KT 10SM -RA SCT035 SCT047 OVC060 11/11 A2991 RMK
                 AO2 LTG DSNT NE =
2014-10-22 00:55 METAR KJYO 220455Z AUTO 34005KT 10SM -RA OVC060 11/11 A2991 RMK AO2 =
2014-10-22 00:35 METAR KJYO 220435Z AUTO 34005KT 10SM -RA BKN060 BKN085 OVC110 11/11 A2992 RMK
                 AO2 LTG DSNT NE AND E =
2014-10-22 00:15 METAR KJYO 220415Z AUTO 33004KT 10SM SCT060 BKN070 OVC080 11/11 A2993 RMK AO2 =
2014-10-21 23:55 METAR KJYO 220355Z AUTO 01003KT 10SM SCT060 OVC070 11/11 A2993 RMK AO2 P0001 =
2014-10-21 23:35 METAR KJYO 220335Z AUTO 01004KT 10SM -RA OVC050 11/11 A2993 RMK AO2 =
2014-10-21 23:15 METAR KJYO 220315Z AUTO 00000KT 10SM -RA SCT048 OVC055 11/11 A2994 RMK AO2 =

Support USWX by starting your Amazon purchase here.